createdAt,value
2023-02-09T00:04:51.297Z,-2.06
2023-02-09T00:09:54.042Z,-1.97
2023-02-09T00:14:56.686Z,-1.97
2023-02-09T00:19:59.285Z,-2.04
2023-02-09T00:25:01.935Z,-2.11
2023-02-09T00:30:05.712Z,-1.91
2023-02-09T00:35:08.561Z,-2.16
2023-02-09T00:40:11.722Z,-2.03
2023-02-09T00:45:15.276Z,-2.04
2023-02-09T00:50:18.197Z,-2.05
2023-02-09T00:55:21.158Z,-1.92
2023-02-09T01:00:23.940Z,-1.87
2023-02-09T01:05:26.593Z,-1.98
2023-02-09T01:10:29.161Z,-2.03
2023-02-09T01:15:31.901Z,-2.13
2023-02-09T01:20:34.875Z,-1.98
2023-02-09T01:25:37.903Z,-1.94
2023-02-09T01:30:40.621Z,-2.00
2023-02-09T01:35:43.287Z,-2.09
2023-02-09T01:40:50.408Z,-2.18
2023-02-09T01:45:57.002Z,-1.90
2023-02-09T01:51:01.128Z,-1.75
2023-02-09T01:56:16.999Z,-1.71
2023-02-09T02:01:21.378Z,-1.61
2023-02-09T02:06:24.131Z,-1.68
2023-02-09T02:11:29.873Z,-1.91
2023-02-09T02:16:59.277Z,-1.78
2023-02-09T02:22:26.725Z,-1.74
2023-02-09T02:27:59.673Z,-1.74
2023-02-09T02:33:20.991Z,-1.63
2023-02-09T02:38:42.575Z,-1.65
2023-02-09T02:44:02.549Z,-1.61
2023-02-09T02:49:36.262Z,-1.78
2023-02-09T02:54:43.124Z,-1.55
2023-02-09T02:59:55.708Z,-1.59
2023-02-09T03:05:00.476Z,-1.53
2023-02-09T03:10:23.182Z,-1.65
2023-02-09T03:15:44.148Z,-1.61
2023-02-09T03:21:16.127Z,-1.33
2023-02-09T03:26:25.338Z,-1.19
2023-02-09T03:31:29.149Z,-1.27
2023-02-09T03:36:37.388Z,-1.44
2023-02-09T03:41:39.956Z,-1.38
2023-02-09T03:46:43.857Z,-1.22
2023-02-09T03:51:46.506Z,-1.25
2023-02-09T03:56:49.305Z,-1.09
2023-02-09T04:01:53.777Z,-1.08
2023-02-09T04:06:57.546Z,-0.98
2023-02-09T04:12:00.112Z,-0.90
2023-02-09T04:17:02.748Z,-1.16
2023-02-09T04:22:05.352Z,-1.16
2023-02-09T04:27:09.893Z,-1.18
2023-02-09T04:32:12.521Z,-1.15
2023-02-09T04:37:15.150Z,-1.21
2023-02-09T04:42:17.727Z,-1.26
2023-02-09T04:47:20.319Z,-1.23
2023-02-09T04:52:23.260Z,-1.02
2023-02-09T04:57:44.280Z,-1.05
2023-02-09T05:02:46.889Z,-1.01
2023-02-09T05:07:49.491Z,-1.10
2023-02-09T05:12:52.617Z,-1.24
2023-02-09T05:17:55.248Z,-1.36
2023-02-09T05:22:57.823Z,-1.25
2023-02-09T05:28:00.651Z,-1.00
2023-02-09T05:33:03.449Z,-1.03
2023-02-09T05:38:06.129Z,-1.05
2023-02-09T05:43:08.912Z,-1.24
2023-02-09T05:48:11.559Z,-0.92
2023-02-09T05:53:15.258Z,-0.89
2023-02-09T05:58:17.909Z,-0.88
2023-02-09T06:03:20.772Z,-0.75
2023-02-09T06:08:23.559Z,-0.81
2023-02-09T06:13:26.109Z,-0.86
2023-02-09T06:18:28.768Z,-0.67
2023-02-09T06:23:31.392Z,-0.51
2023-02-09T06:28:34.113Z,-0.38
2023-02-09T06:33:37.927Z,-0.19
2023-02-09T06:38:40.556Z,-0.09
2023-02-09T06:43:43.147Z,-0.17
2023-02-09T06:48:45.737Z,0.10
2023-02-09T06:53:48.684Z,0.32
2023-02-09T06:58:51.383Z,0.40
2023-02-09T07:03:53.964Z,0.36
2023-02-09T07:08:56.819Z,0.01
2023-02-09T07:13:59.722Z,0.19
2023-02-09T07:19:02.434Z,0.27
2023-02-09T07:24:05.449Z,0.67
2023-02-09T07:29:08.112Z,0.49
2023-02-09T07:34:10.755Z,0.66
2023-02-09T07:39:13.345Z,0.66
2023-02-09T07:44:15.998Z,0.78
2023-02-09T07:49:18.655Z,0.71
2023-02-09T07:54:21.711Z,0.72
2023-02-09T07:59:24.344Z,0.97
2023-02-09T08:04:27.034Z,1.10
2023-02-09T08:09:29.656Z,1.24
2023-02-09T08:14:43.074Z,0.94
2023-02-09T08:19:49.507Z,0.95
2023-02-09T08:24:52.854Z,1.02
2023-02-09T08:29:55.478Z,1.06
2023-02-09T08:34:58.090Z,0.95
2023-02-09T08:40:00.659Z,1.13
2023-02-09T08:45:03.368Z,1.23
2023-02-09T08:50:06.549Z,1.43
2023-02-09T08:55:09.330Z,1.14
2023-02-09T09:00:13.008Z,1.15
2023-02-09T09:05:15.875Z,1.52
2023-02-09T09:10:18.622Z,1.67
2023-02-09T09:15:21.615Z,1.37
2023-02-09T09:20:24.273Z,1.62
2023-02-09T09:25:26.874Z,1.60
2023-02-09T09:30:29.517Z,1.36
2023-02-09T09:35:32.405Z,1.45
2023-02-09T09:40:40.534Z,1.36
2023-02-09T09:45:43.195Z,1.49
2023-02-09T09:50:46.878Z,1.84
2023-02-09T09:55:55.276Z,1.62
2023-02-09T10:00:58.740Z,1.97
2023-02-09T10:06:14.025Z,2.23
2023-02-09T10:11:20.425Z,1.77
2023-02-09T10:16:29.233Z,1.82
2023-02-09T10:21:36.173Z,1.37
2023-02-09T10:26:40.771Z,1.33
2023-02-09T10:32:03.507Z,1.28
2023-02-09T10:37:18.186Z,1.31
2023-02-09T10:42:29.490Z,1.28
2023-02-09T10:47:32.465Z,1.18
2023-02-09T10:52:37.399Z,0.86
2023-02-09T10:57:39.971Z,1.20
2023-02-09T11:02:54.166Z,1.02
2023-02-09T11:08:06.326Z,1.06
2023-02-09T11:13:19.854Z,1.34
2023-02-09T11:18:26.895Z,1.57
2023-02-09T11:23:49.801Z,1.86
2023-02-09T11:29:32.700Z,1.86
2023-02-09T11:35:02.548Z,1.70
2023-02-09T11:40:22.864Z,1.81
2023-02-09T11:45:52.382Z,1.19
2023-02-09T11:51:08.089Z,1.46
2023-02-09T11:56:17.725Z,1.45
2023-02-09T12:01:22.933Z,1.56
2023-02-09T12:06:27.693Z,1.64
2023-02-09T12:12:09.440Z,1.70
2023-02-09T12:17:15.493Z,1.35
2023-02-09T12:22:33.291Z,1.23
2023-02-09T12:27:38.995Z,1.22
2023-02-09T12:32:44.186Z,1.46
2023-02-09T12:38:27.330Z,1.42
2023-02-09T12:43:31.876Z,1.23
2023-02-09T12:48:34.586Z,1.01
2023-02-09T12:53:46.008Z,0.97
2023-02-09T12:58:48.573Z,1.15
2023-02-09T13:04:03.322Z,1.05
2023-02-09T13:09:13.725Z,0.99
2023-02-09T13:14:18.069Z,0.85
2023-02-09T13:19:53.110Z,0.98
2023-02-09T13:25:38.710Z,1.00
2023-02-09T13:30:41.762Z,0.92
2023-02-09T13:36:24.498Z,0.67
2023-02-09T13:41:40.754Z,0.60
2023-02-09T13:46:52.454Z,0.70
2023-02-09T13:52:21.175Z,0.81
2023-02-09T13:57:32.097Z,0.94
2023-02-09T14:02:36.296Z,0.81
2023-02-09T14:07:39.236Z,0.71
2023-02-09T14:12:56.075Z,0.68
2023-02-09T14:17:59.004Z,0.61
2023-02-09T14:23:02.130Z,0.55
2023-02-09T14:28:05.399Z,0.43
2023-02-09T14:33:24.537Z,0.47
2023-02-09T14:38:39.458Z,0.49
2023-02-09T14:43:42.094Z,0.58
2023-02-09T14:48:44.663Z,0.31
2023-02-09T14:53:47.311Z,0.41
2023-02-09T14:58:49.918Z,0.33
2023-02-09T15:03:52.609Z,0.57
2023-02-09T15:08:55.371Z,0.52
2023-02-09T15:14:04.147Z,0.55
2023-02-09T15:19:17.238Z,0.35
2023-02-09T15:24:20.022Z,0.30
2023-02-09T15:29:25.820Z,0.41
2023-02-09T15:34:28.410Z,0.58
2023-02-09T15:39:31.654Z,0.33
2023-02-09T15:44:52.645Z,0.13
2023-02-09T15:49:55.335Z,0.26
2023-02-09T15:54:58.012Z,0.04
2023-02-09T16:00:00.678Z,0.25
2023-02-09T16:05:03.320Z,-0.03
2023-02-09T16:10:13.210Z,-0.31
2023-02-09T16:15:24.206Z,0.00
2023-02-09T16:20:28.171Z,0.07
2023-02-09T16:25:30.800Z,-0.28
2023-02-09T16:30:37.712Z,-0.27
2023-02-09T16:35:40.512Z,-0.14
2023-02-09T16:40:43.264Z,-0.29
2023-02-09T16:46:00.873Z,-0.33
2023-02-09T16:51:06.382Z,-0.21
2023-02-09T16:56:13.194Z,-0.18
2023-02-09T17:01:21.587Z,-0.24
2023-02-09T17:06:30.230Z,-0.15
2023-02-09T17:11:33.390Z,-0.32
2023-02-09T17:16:39.947Z,-0.18
2023-02-09T17:21:42.928Z,-0.16
2023-02-09T17:26:48.225Z,-0.13
2023-02-09T17:31:53.483Z,-0.17
2023-02-09T17:37:00.794Z,-0.34
2023-02-09T17:42:03.607Z,-0.47
2023-02-09T17:47:10.110Z,-0.70
2023-02-09T17:52:24.332Z,-0.55
2023-02-09T17:57:27.709Z,-0.51
2023-02-09T18:02:31.011Z,-0.64
2023-02-09T18:07:35.618Z,-0.48
2023-02-09T18:12:39.394Z,-0.90
2023-02-09T18:17:46.198Z,-0.79
2023-02-09T18:22:57.938Z,-0.66
2023-02-09T18:28:01.593Z,-0.67
2023-02-09T18:33:10.648Z,-0.93
2023-02-09T18:38:53.625Z,-0.77
2023-02-09T18:44:00.850Z,-0.93
2023-02-09T18:49:06.115Z,-0.84
2023-02-09T18:54:12.944Z,-0.84
2023-02-09T18:59:17.853Z,-1.06
2023-02-09T19:04:20.512Z,-1.45
2023-02-09T19:09:23.213Z,-1.41
2023-02-09T19:14:38.008Z,-1.30
2023-02-09T19:19:41.513Z,-1.32
2023-02-09T19:24:47.546Z,-1.25
2023-02-09T19:30:30.530Z,-0.99
2023-02-09T19:35:34.044Z,-0.94
2023-02-09T19:41:10.734Z,-1.24
2023-02-09T19:46:36.667Z,-1.00
2023-02-09T19:51:39.444Z,-1.30
2023-02-09T19:57:06.496Z,-1.32
2023-02-09T20:02:12.639Z,-0.98
2023-02-09T20:07:15.465Z,-1.19
2023-02-09T20:12:19.474Z,-1.26
2023-02-09T20:17:22.140Z,-1.27
2023-02-09T20:22:26.593Z,-1.27
2023-02-09T20:27:33.055Z,-1.49
2023-02-09T20:32:36.849Z,-1.71
2023-02-09T20:37:45.392Z,-1.59
2023-02-09T20:43:08.814Z,-1.26
2023-02-09T20:48:24.095Z,-1.17
2023-02-09T20:53:26.775Z,-1.06
2023-02-09T20:58:29.389Z,-1.16
2023-02-09T21:03:32.006Z,-1.35
2023-02-09T21:08:37.198Z,-1.34
2023-02-09T21:13:41.268Z,-1.37
2023-02-09T21:18:45.792Z,-1.60
2023-02-09T21:23:48.550Z,-1.27
2023-02-09T21:28:56.144Z,-1.15
2023-02-09T21:33:58.734Z,-1.26
2023-02-09T21:39:01.244Z,-1.48
2023-02-09T21:44:04.982Z,-1.60
2023-02-09T21:49:07.931Z,-1.37
2023-02-09T21:54:15.730Z,-1.29
2023-02-09T21:59:18.414Z,-1.20
2023-02-09T22:04:21.527Z,-1.38
2023-02-09T22:09:25.191Z,-1.77
2023-02-09T22:14:28.936Z,-1.79
2023-02-09T22:19:31.702Z,-1.98
2023-02-09T22:24:34.967Z,-1.83
2023-02-09T22:29:37.690Z,-1.85
2023-02-09T22:34:40.250Z,-1.52
2023-02-09T22:39:45.009Z,-1.63
2023-02-09T22:44:48.072Z,-1.62
2023-02-09T22:49:50.754Z,-1.78
2023-02-09T22:54:53.301Z,-2.19
2023-02-09T22:59:56.068Z,-2.05
2023-02-09T23:04:58.640Z,-2.05
2023-02-09T23:10:01.266Z,-1.85
2023-02-09T23:15:06.110Z,-2.04
2023-02-09T23:20:09.057Z,-1.90
2023-02-09T23:25:11.589Z,-1.82
2023-02-09T23:30:15.407Z,-1.65
2023-02-09T23:35:18.064Z,-1.41
2023-02-09T23:40:20.633Z,-1.61
2023-02-09T23:45:23.450Z,-1.56
2023-02-09T23:50:26.470Z,-1.41
2023-02-09T23:55:29.167Z,-1.66
